createdAt,value
2022-09-30T00:02:48.355Z,16.90
2022-09-30T00:09:12.755Z,15.60
2022-09-30T00:15:37.056Z,16.20
2022-09-30T00:22:01.408Z,16.50
2022-09-30T00:28:25.652Z,15.00
2022-09-30T00:34:50.649Z,15.20
2022-09-30T00:41:15.037Z,15.40
2022-09-30T00:47:40.350Z,14.90
2022-09-30T00:54:10.422Z,14.40
2022-09-30T01:00:44.186Z,14.30
2022-09-30T01:07:08.542Z,13.70
2022-09-30T01:13:34.284Z,14.90
2022-09-30T01:20:01.024Z,13.30
2022-09-30T01:26:40.827Z,12.90
2022-09-30T01:33:06.170Z,13.20
2022-09-30T01:39:48.318Z,14.00
2022-09-30T01:46:18.330Z,12.30
2022-09-30T01:52:45.227Z,13.40
2022-09-30T01:59:09.702Z,13.30
2022-09-30T02:05:40.913Z,12.60
2022-09-30T02:12:19.881Z,11.40
2022-09-30T02:18:58.980Z,12.50
2022-09-30T02:25:23.324Z,13.20
2022-09-30T02:31:47.706Z,12.40
2022-09-30T02:38:16.965Z,10.30
2022-09-30T02:44:41.342Z,11.90
2022-09-30T02:51:20.552Z,10.50
2022-09-30T02:57:59.814Z,11.00
2022-09-30T03:04:25.132Z,10.50
2022-09-30T03:10:55.161Z,10.10
2022-09-30T03:17:21.960Z,10.20
2022-09-30T03:23:56.309Z,10.10
2022-09-30T03:30:26.242Z,9.60
2022-09-30T03:37:00.309Z,10.60
2022-09-30T03:43:32.698Z,10.10
2022-09-30T03:49:56.952Z,15.20
2022-09-30T03:56:24.064Z,9.20
2022-09-30T04:02:48.291Z,9.10
2022-09-30T04:09:12.595Z,10.60
2022-09-30T04:15:36.912Z,9.40
2022-09-30T04:22:01.132Z,8.90
2022-09-30T04:28:33.851Z,10.50
2022-09-30T04:34:58.096Z,8.90
2022-09-30T04:41:22.536Z,9.70
2022-09-30T04:47:46.836Z,9.20
2022-09-30T04:54:11.269Z,9.10
2022-09-30T05:00:41.558Z,9.10
2022-09-30T05:07:10.729Z,7.80
2022-09-30T05:13:34.980Z,8.60
2022-09-30T05:20:06.759Z,10.20
2022-09-30T05:26:31.023Z,8.20
2022-09-30T05:32:55.336Z,8.00
2022-09-30T05:39:21.802Z,8.50
2022-09-30T05:45:42.565Z,9.20
2022-09-30T05:52:08.185Z,8.50
2022-09-30T05:58:34.611Z,8.80
2022-09-30T06:05:01.034Z,7.60
2022-09-30T06:11:26.362Z,7.30
2022-09-30T06:17:55.795Z,8.20
2022-09-30T06:24:20.266Z,7.50
2022-09-30T06:30:44.654Z,9.10
2022-09-30T06:37:09.190Z,7.00
2022-09-30T06:43:43.319Z,7.50
2022-09-30T06:50:11.125Z,10.00
2022-09-30T06:56:39.953Z,7.90
2022-09-30T07:03:05.321Z,15.30
2022-09-30T07:09:29.832Z,16.50
2022-09-30T07:15:54.136Z,14.70
2022-09-30T07:22:18.722Z,13.60
2022-09-30T07:28:43.035Z,8.50
2022-09-30T07:35:07.359Z,11.60
2022-09-30T07:47:39.182Z,8.50
2022-09-30T07:54:03.502Z,10.60
2022-09-30T08:00:42.664Z,8.20
2022-09-30T08:07:07.646Z,10.60
2022-09-30T08:13:32.011Z,9.30
2022-09-30T08:19:56.349Z,7.60
2022-09-30T08:26:21.455Z,8.40
2022-09-30T08:32:45.727Z,6.40
2022-09-30T08:39:10.155Z,9.90
2022-09-30T08:45:38.407Z,10.50
2022-09-30T08:52:12.716Z,6.20
2022-09-30T08:58:40.299Z,7.50
2022-09-30T09:05:05.225Z,7.50
2022-09-30T09:11:45.523Z,7.30
2022-09-30T09:18:25.912Z,6.80
2022-09-30T09:24:59.566Z,6.20
2022-09-30T09:31:30.979Z,6.30
2022-09-30T09:38:04.855Z,6.40
2022-09-30T09:44:47.538Z,5.80
2022-09-30T09:51:14.951Z,5.60
2022-09-30T09:57:42.131Z,6.60
2022-09-30T10:04:16.319Z,6.00
2022-09-30T10:10:53.134Z,5.60
2022-09-30T10:17:27.568Z,12.70
2022-09-30T10:23:51.843Z,13.70
2022-09-30T10:30:22.442Z,11.60
2022-09-30T10:36:58.555Z,13.00
2022-09-30T10:43:24.164Z,11.40
2022-09-30T10:49:36.910Z,7.90
2022-09-30T10:56:01.226Z,8.40
2022-09-30T11:02:25.482Z,7.00
2022-09-30T11:08:55.959Z,6.90
2022-09-30T11:15:20.241Z,4.70
2022-09-30T11:21:47.303Z,7.60
2022-09-30T11:28:15.859Z,5.70
2022-09-30T11:34:38.838Z,6.20
2022-09-30T11:41:14.928Z,5.50
2022-09-30T11:47:42.548Z,5.80
2022-09-30T11:54:30.873Z,6.20
2022-09-30T12:07:00.141Z,5.50
2022-09-30T12:13:26.543Z,6.50
2022-09-30T12:20:06.182Z,4.70
2022-09-30T12:26:38.327Z,3.70
2022-09-30T12:33:06.383Z,5.00
2022-09-30T12:39:28.144Z,4.70
2022-09-30T12:45:50.815Z,4.20
2022-09-30T12:52:20.972Z,4.60
2022-09-30T12:58:45.246Z,9.60
2022-09-30T13:05:19.945Z,5.40
2022-09-30T13:11:48.367Z,5.10
2022-09-30T13:18:14.250Z,5.10
2022-09-30T13:24:50.908Z,5.30
2022-09-30T13:31:24.253Z,5.90
2022-09-30T13:44:05.600Z,4.00
2022-09-30T13:50:58.264Z,3.10
2022-09-30T13:57:26.288Z,5.80
2022-09-30T14:04:01.432Z,5.00
2022-09-30T14:17:42.011Z,6.30
2022-09-30T14:24:06.610Z,8.70
2022-09-30T14:30:33.858Z,6.50
2022-09-30T14:37:08.687Z,4.70
2022-09-30T14:43:32.978Z,6.00
2022-09-30T14:49:58.999Z,6.10
2022-09-30T14:56:23.231Z,6.70
2022-09-30T15:02:59.446Z,4.90
2022-09-30T15:09:23.724Z,5.10
2022-09-30T15:15:49.497Z,3.90
2022-09-30T15:22:13.780Z,4.60
2022-09-30T15:28:39.245Z,4.40
2022-09-30T15:35:15.435Z,4.00
2022-09-30T15:41:39.934Z,4.20
2022-09-30T15:48:04.258Z,4.30
2022-09-30T15:54:37.803Z,3.80
2022-09-30T16:01:16.590Z,4.50
2022-09-30T16:07:46.859Z,4.20
2022-09-30T16:14:11.188Z,3.90
2022-09-30T16:20:35.687Z,4.70
2022-09-30T16:27:15.081Z,4.30
2022-09-30T16:33:39.460Z,6.40
2022-09-30T16:40:03.801Z,5.50
2022-09-30T16:46:31.167Z,15.30
2022-09-30T16:52:56.186Z,16.50
2022-09-30T16:59:03.757Z,9.40
2022-09-30T17:05:28.237Z,14.10
2022-09-30T17:18:41.853Z,10.30
2022-09-30T17:25:07.146Z,10.50
2022-09-30T17:31:32.904Z,10.20
2022-09-30T17:37:46.985Z,10.30
2022-09-30T17:44:11.488Z,6.90
2022-09-30T17:50:37.968Z,10.30
2022-09-30T17:57:02.295Z,7.70
2022-09-30T18:03:26.729Z,7.80
2022-09-30T18:09:52.246Z,5.80
2022-09-30T18:16:23.876Z,7.60
2022-09-30T18:22:39.469Z,6.00
2022-09-30T18:29:03.857Z,6.10
2022-09-30T18:35:28.145Z,6.00
2022-09-30T18:41:52.461Z,7.00
2022-09-30T18:48:16.786Z,5.40
2022-09-30T18:54:51.970Z,6.40
2022-09-30T19:01:17.616Z,6.60
2022-09-30T19:07:41.998Z,5.70
2022-09-30T19:20:58.872Z,4.70
2022-09-30T19:27:23.181Z,4.60
2022-09-30T19:33:56.105Z,6.10
2022-09-30T19:40:22.225Z,5.30
2022-09-30T19:46:46.974Z,5.80
2022-09-30T19:53:11.391Z,6.00
2022-09-30T19:59:37.558Z,7.70
2022-09-30T20:06:01.828Z,6.70
2022-09-30T20:12:26.185Z,5.70
2022-09-30T20:18:50.555Z,9.10
2022-09-30T20:31:36.392Z,6.10
2022-09-30T20:38:26.237Z,8.60
2022-09-30T20:44:50.534Z,7.60
2022-09-30T20:51:15.084Z,7.40
2022-09-30T20:57:39.386Z,5.80
2022-09-30T21:04:04.854Z,6.10
2022-09-30T21:10:34.158Z,6.60
2022-09-30T21:17:01.512Z,7.50
2022-09-30T21:23:28.024Z,6.40
2022-09-30T21:29:55.833Z,7.20
2022-09-30T21:36:20.438Z,5.60
2022-09-30T21:42:46.986Z,7.30
2022-09-30T21:49:15.975Z,7.60
2022-09-30T21:55:40.517Z,5.90
2022-09-30T22:02:08.139Z,6.80
2022-09-30T22:08:32.966Z,5.90
2022-09-30T22:14:58.377Z,6.90
2022-09-30T22:21:27.318Z,6.80
2022-09-30T22:27:54.996Z,7.30
2022-09-30T22:34:25.280Z,6.30
2022-09-30T22:41:16.142Z,5.30
2022-09-30T22:47:44.042Z,7.20
2022-09-30T22:54:08.324Z,5.70
2022-09-30T23:00:34.300Z,6.80
2022-09-30T23:07:01.722Z,5.80
2022-09-30T23:13:26.178Z,7.20
2022-09-30T23:19:50.617Z,6.30
2022-09-30T23:26:14.897Z,6.40
2022-09-30T23:32:40.778Z,8.10
2022-09-30T23:39:06.322Z,7.20
2022-09-30T23:45:36.813Z,8.10
2022-09-30T23:52:01.282Z,7.60
2022-09-30T23:58:28.910Z,6.40
